Terminal Aerodrome Forecast
Issued by NWS Cleveland, OH

Home | Current Version | Previous Version | Text Only | Print | Product List | Glossary Off
Versions: 1 2 3 4 5 6 7 8 9 10 11 12 13 14

000
FTUS41 KCLE 272332
TAFTOL
TAF
KTOL 272332Z 2800/2824 27010KT P6SM BKN070
     FM280200 29006KT P6SM SCT100
     FM281000 36003KT 5SM BR SKC
     FM281300 07006KT P6SM SKC=

USA.gov is the U.S. government's official web portal to all federal, state and local government web resources and services.